sensor_id;sensor_type;location;lat;lon;timestamp;pressure;altitude;pressure_sealevel;temperature;humidity
28354;BME280;15603;50.878;8.036;2024-01-11T00:02:14;140173.50;;;-13.24;97.57
28354;BME280;15603;50.878;8.036;2024-01-11T00:04:42;140154.50;;;-13.32;97.39
28354;BME280;15603;50.878;8.036;2024-01-11T00:07:10;140166.38;;;-13.27;97.84
28354;BME280;15603;50.878;8.036;2024-01-11T00:09:42;140148.53;;;-13.35;97.06
28354;BME280;15603;50.878;8.036;2024-01-11T00:12:09;140159.25;;;-13.30;96.89
28354;BME280;15603;50.878;8.036;2024-01-11T00:14:36;140136.63;;;-13.40;97.12
28354;BME280;15603;50.878;8.036;2024-01-11T00:17:04;140127.09;;;-13.44;97.17
28354;BME280;15603;50.878;8.036;2024-01-11T00:19:31;140135.44;;;-13.40;97.53
28354;BME280;15603;50.878;8.036;2024-01-11T00:21:58;140116.38;;;-13.49;96.60
28354;BME280;15603;50.878;8.036;2024-01-11T00:24:25;140112.78;;;-13.50;97.67
28354;BME280;15603;50.878;8.036;2024-01-11T00:26:52;140108.03;;;-13.52;97.87
28354;BME280;15603;50.878;8.036;2024-01-11T00:29:20;140096.09;;;-13.57;97.75
28354;BME280;15603;50.878;8.036;2024-01-11T00:31:48;140084.16;;;-13.63;97.93
28354;BME280;15603;50.878;8.036;2024-01-11T00:34:15;140079.41;;;-13.65;97.71
28354;BME280;15603;50.878;8.036;2024-01-11T00:36:42;140069.88;;;-13.69;97.73
28354;BME280;15603;50.878;8.036;2024-01-11T00:39:09;140069.88;;;-13.69;98.15
28354;BME280;15603;50.878;8.036;2024-01-11T00:41:37;140072.28;;;-13.68;98.15
28354;BME280;15603;50.878;8.036;2024-01-11T00:44:04;140065.09;;;-13.71;98.28
28354;BME280;15603;50.878;8.036;2024-01-11T00:46:31;140074.63;;;-13.67;98.52
28354;BME280;15603;50.878;8.036;2024-01-11T00:48:59;140067.50;;;-13.70;98.43
28354;BME280;15603;50.878;8.036;2024-01-11T00:51:26;140075.84;;;-13.66;98.24
28354;BME280;15603;50.878;8.036;2024-01-11T00:53:53;140062.75;;;-13.72;97.92
28354;BME280;15603;50.878;8.036;2024-01-11T00:56:21;140053.19;;;-13.76;98.10
28354;BME280;15603;50.878;8.036;2024-01-11T00:58:48;140067.50;;;-13.70;98.36
28354;BME280;15603;50.878;8.036;2024-01-11T01:01:15;140072.28;;;-13.68;98.56
28354;BME280;15603;50.878;8.036;2024-01-11T01:03:42;140072.28;;;-13.68;97.90
28354;BME280;15603;50.878;8.036;2024-01-11T01:06:10;140094.91;;;-13.58;96.80
28354;BME280;15603;50.878;8.036;2024-01-11T01:08:38;140091.31;;;-13.59;96.80
28354;BME280;15603;50.878;8.036;2024-01-11T01:11:05;140084.16;;;-13.63;96.19
28354;BME280;15603;50.878;8.036;2024-01-11T01:13:32;140055.59;;;-13.75;96.81
28354;BME280;15603;50.878;8.036;2024-01-11T01:15:59;140053.19;;;-13.76;97.59
28354;BME280;15603;50.878;8.036;2024-01-11T01:18:26;140048.41;;;-13.78;97.29
28354;BME280;15603;50.878;8.036;2024-01-11T01:20:55;140036.53;;;-13.83;97.05
28354;BME280;15603;50.878;8.036;2024-01-11T01:23:22;140046.06;;;-13.79;97.36
28354;BME280;15603;50.878;8.036;2024-01-11T01:25:49;140055.59;;;-13.75;97.31
28354;BME280;15603;50.878;8.036;2024-01-11T01:28:16;140001.97;;;-13.98;96.87
28354;BME280;15603;50.878;8.036;2024-01-11T01:30:43;140038.88;;;-13.82;97.40
28354;BME280;15603;50.878;8.036;2024-01-11T01:33:11;140040.13;;;-13.81;96.74
28354;BME280;15603;50.878;8.036;2024-01-11T01:35:38;140046.06;;;-13.79;96.21
28354;BME280;15603;50.878;8.036;2024-01-11T01:38:05;140016.25;;;-13.92;96.79
28354;BME280;15603;50.878;8.036;2024-01-11T01:40:32;140023.41;;;-13.89;97.40
28354;BME280;15603;50.878;8.036;2024-01-11T01:42:59;140022.25;;;-13.89;97.45
28354;BME280;15603;50.878;8.036;2024-01-11T01:45:27;139934.06;;;-14.27;97.46
28354;BME280;15603;50.878;8.036;2024-01-11T01:47:55;139950.75;;;-14.20;97.24
28354;BME280;15603;50.878;8.036;2024-01-11T01:50:22;139988.84;;;-14.04;96.72
28354;BME280;15603;50.878;8.036;2024-01-11T01:52:50;140018.66;;;-13.91;96.97
28354;BME280;15603;50.878;8.036;2024-01-11T01:55:19;139988.84;;;-14.04;97.01
28354;BME280;15603;50.878;8.036;2024-01-11T01:57:47;139985.28;;;-14.05;97.55
28354;BME280;15603;50.878;8.036;2024-01-11T02:00:15;140013.91;;;-13.93;96.58
28354;BME280;15603;50.878;8.036;2024-01-11T02:02:44;139996.03;;;-14.00;96.84
28354;BME280;15603;50.878;8.036;2024-01-11T02:05:15;139985.28;;;-14.05;96.88
28354;BME280;15603;50.878;8.036;2024-01-11T02:07:44;139959.06;;;-14.16;96.52
28354;BME280;15603;50.878;8.036;2024-01-11T02:10:12;139955.53;;;-14.18;97.84
28354;BME280;15603;50.878;8.036;2024-01-11T02:12:39;139961.47;;;-14.15;97.48
28354;BME280;15603;50.878;8.036;2024-01-11T02:15:07;139953.13;;;-14.19;97.68
28354;BME280;15603;50.878;8.036;2024-01-11T02:17:34;139951.94;;;-14.19;97.79
28354;BME280;15603;50.878;8.036;2024-01-11T02:20:02;139955.53;;;-14.18;98.10
28354;BME280;15603;50.878;8.036;2024-01-11T02:22:35;139966.22;;;-14.13;97.55
28354;BME280;15603;50.878;8.036;2024-01-11T02:25:04;139967.41;;;-14.13;97.87
28354;BME280;15603;50.878;8.036;2024-01-11T02:27:53;139960.28;;;-14.16;97.17
28354;BME280;15603;50.878;8.036;2024-01-11T02:30:20;139829.31;;;-14.72;97.31
28354;BME280;15603;50.878;8.036;2024-01-11T02:32:48;139972.16;;;-14.11;96.06
28354;BME280;15603;50.878;8.036;2024-01-11T02:35:16;139972.16;;;-14.11;95.74
28354;BME280;15603;50.878;8.036;2024-01-11T02:37:44;139965.03;;;-14.14;96.55
28354;BME280;15603;50.878;8.036;2024-01-11T02:40:13;139980.50;;;-14.07;96.13
28354;BME280;15603;50.878;8.036;2024-01-11T02:42:40;139941.19;;;-14.24;96.96
28354;BME280;15603;50.878;8.036;2024-01-11T02:45:08;139931.69;;;-14.28;97.46
28354;BME280;15603;50.878;8.036;2024-01-11T02:47:37;139928.09;;;-14.30;97.96
28354;BME280;15603;50.878;8.036;2024-01-11T02:50:08;139918.56;;;-14.34;97.79
28354;BME280;15603;50.878;8.036;2024-01-11T02:52:35;139924.56;;;-14.31;97.46
28354;BME280;15603;50.878;8.036;2024-01-11T02:55:03;139803.13;;;-14.84;97.63
28354;BME280;15603;50.878;8.036;2024-01-11T02:57:30;139943.59;;;-14.23;97.07
28354;BME280;15603;50.878;8.036;2024-01-11T02:59:57;139878.09;;;-14.51;97.49
28354;BME280;15603;50.878;8.036;2024-01-11T03:02:24;139919.81;;;-14.33;97.97
28354;BME280;15603;50.878;8.036;2024-01-11T03:04:52;139910.22;;;-14.37;97.87
28354;BME280;15603;50.878;8.036;2024-01-11T03:07:19;139918.56;;;-14.34;97.51
28354;BME280;15603;50.878;8.036;2024-01-11T03:09:46;139913.81;;;-14.36;97.32
28354;BME280;15603;50.878;8.036;2024-01-11T03:12:13;139892.38;;;-14.45;97.12
28354;BME280;15603;50.878;8.036;2024-01-11T03:14:41;139881.66;;;-14.50;97.77
28354;BME280;15603;50.878;8.036;2024-01-11T03:17:08;139884.06;;;-14.49;98.49
28354;BME280;15603;50.878;8.036;2024-01-11T03:19:39;139878.09;;;-14.51;97.69
28354;BME280;15603;50.878;8.036;2024-01-11T03:22:07;139874.50;;;-14.53;98.17
28354;BME280;15603;50.878;8.036;2024-01-11T03:24:38;139895.94;;;-14.44;97.88
28354;BME280;15603;50.878;8.036;2024-01-11T03:27:08;139891.19;;;-14.46;97.01
28354;BME280;15603;50.878;8.036;2024-01-11T03:29:35;139860.28;;;-14.59;97.25
28354;BME280;15603;50.878;8.036;2024-01-11T03:32:02;139862.69;;;-14.58;97.42
28354;BME280;15603;50.878;8.036;2024-01-11T03:34:30;139861.50;;;-14.58;97.20
28354;BME280;15603;50.878;8.036;2024-01-11T03:36:57;139847.19;;;-14.65;97.75
28354;BME280;15603;50.878;8.036;2024-01-11T03:39:25;139746.03;;;-15.08;97.60
28354;BME280;15603;50.878;8.036;2024-01-11T03:41:52;139837.66;;;-14.69;97.33
28354;BME280;15603;50.878;8.036;2024-01-11T03:44:19;139825.78;;;-14.74;97.51
28354;BME280;15603;50.878;8.036;2024-01-11T03:46:46;139825.78;;;-14.74;97.75
28354;BME280;15603;50.878;8.036;2024-01-11T03:49:13;139823.38;;;-14.75;98.32
28354;BME280;15603;50.878;8.036;2024-01-11T03:51:41;139832.91;;;-14.71;97.56
28354;BME280;15603;50.878;8.036;2024-01-11T03:54:08;139850.75;;;-14.63;97.36
28354;BME280;15603;50.878;8.036;2024-01-11T03:56:38;139826.97;;;-14.73;97.33
28354;BME280;15603;50.878;8.036;2024-01-11T03:59:10;139825.78;;;-14.74;97.68
28354;BME280;15603;50.878;8.036;2024-01-11T04:01:41;139774.56;;;-14.96;97.04
28354;BME280;15603;50.878;8.036;2024-01-11T04:04:08;139788.84;;;-14.90;97.18
28354;BME280;15603;50.878;8.036;2024-01-11T04:06:35;139790.06;;;-14.89;98.54
28354;BME280;15603;50.878;8.036;2024-01-11T04:09:02;139791.25;;;-14.89;99.03
28354;BME280;15603;50.878;8.036;2024-01-11T04:11:30;139791.25;;;-14.89;98.69
28354;BME280;15603;50.878;8.036;2024-01-11T04:13:57;139780.50;;;-14.93;98.88
28354;BME280;15603;50.878;8.036;2024-01-11T04:16:25;139782.91;;;-14.92;98.77
28354;BME280;15603;50.878;8.036;2024-01-11T04:18:52;139769.81;;;-14.98;98.46
28354;BME280;15603;50.878;8.036;2024-01-11T04:21:27;139769.81;;;-14.98;98.61
28354;BME280;15603;50.878;8.036;2024-01-11T04:23:57;139785.28;;;-14.91;98.47
28354;BME280;15603;50.878;8.036;2024-01-11T04:26:24;139776.97;;;-14.95;98.45
28354;BME280;15603;50.878;8.036;2024-01-11T04:28:52;139743.63;;;-15.09;98.81
28354;BME280;15603;50.878;8.036;2024-01-11T04:31:21;139751.97;;;-15.06;99.02
28354;BME280;15603;50.878;8.036;2024-01-11T04:33:48;139750.78;;;-15.06;100.00
28354;BME280;15603;50.878;8.036;2024-01-11T04:36:16;139753.16;;;-15.05;98.97
28354;BME280;15603;50.878;8.036;2024-01-11T04:38:43;139748.38;;;-15.07;99.88
28354;BME280;15603;50.878;8.036;2024-01-11T04:41:12;139744.81;;;-15.09;99.65
28354;BME280;15603;50.878;8.036;2024-01-11T04:43:41;139719.84;;;-15.19;99.26
28354;BME280;15603;50.878;8.036;2024-01-11T04:46:19;139734.13;;;-15.13;99.41
28354;BME280;15603;50.878;8.036;2024-01-11T04:48:47;139726.94;;;-15.16;99.06
28354;BME280;15603;50.878;8.036;2024-01-11T04:51:17;139704.34;;;-15.26;98.91
28354;BME280;15603;50.878;8.036;2024-01-11T04:53:45;139688.91;;;-15.33;99.77
28354;BME280;15603;50.878;8.036;2024-01-11T04:56:14;139717.44;;;-15.20;99.64
28354;BME280;15603;50.878;8.036;2024-01-11T04:58:43;139744.81;;;-15.09;99.37
28354;BME280;15603;50.878;8.036;2024-01-11T05:01:15;139731.72;;;-15.14;99.19
28354;BME280;15603;50.878;8.036;2024-01-11T05:03:43;139748.38;;;-15.07;99.78
28354;BME280;15603;50.878;8.036;2024-01-11T05:06:21;139741.28;;;-15.10;99.02
28354;BME280;15603;50.878;8.036;2024-01-11T05:08:50;139716.25;;;-15.21;98.30
28354;BME280;15603;50.878;8.036;2024-01-11T05:11:20;139717.44;;;-15.20;99.45
28354;BME280;15603;50.878;8.036;2024-01-11T05:13:48;139622.28;;;-15.62;99.01
28354;BME280;15603;50.878;8.036;2024-01-11T05:16:29;139681.75;;;-15.36;98.63
28354;BME280;15603;50.878;8.036;2024-01-11T05:18:57;139693.66;;;-15.31;98.90
28354;BME280;15603;50.878;8.036;2024-01-11T05:21:25;139681.75;;;-15.36;98.46
28354;BME280;15603;50.878;8.036;2024-01-11T05:23:53;139680.56;;;-15.36;98.28
28354;BME280;15603;50.878;8.036;2024-01-11T05:26:20;139615.13;;;-15.65;98.83
28354;BME280;15603;50.878;8.036;2024-01-11T05:28:47;139700.81;;;-15.28;98.74
28354;BME280;15603;50.878;8.036;2024-01-11T05:31:15;139686.50;;;-15.34;98.39
28354;BME280;15603;50.878;8.036;2024-01-11T05:33:44;139609.19;;;-15.67;98.54
28354;BME280;15603;50.878;8.036;2024-01-11T05:36:12;139686.50;;;-15.34;98.71
28354;BME280;15603;50.878;8.036;2024-01-11T05:38:39;139687.72;;;-15.33;98.50
28354;BME280;15603;50.878;8.036;2024-01-11T05:41:10;139637.72;;;-15.55;98.09
28354;BME280;15603;50.878;8.036;2024-01-11T05:43:37;139665.13;;;-15.43;98.22
28354;BME280;15603;50.878;8.036;2024-01-11T05:46:07;139667.47;;;-15.42;96.83
28354;BME280;15603;50.878;8.036;2024-01-11T05:48:34;139641.31;;;-15.53;98.03
28354;BME280;15603;50.878;8.036;2024-01-11T05:51:02;139665.13;;;-15.43;97.95
28354;BME280;15603;50.878;8.036;2024-01-11T05:53:29;139660.31;;;-15.45;97.74
28354;BME280;15603;50.878;8.036;2024-01-11T05:56:00;139567.63;;;-15.85;97.76
28354;BME280;15603;50.878;8.036;2024-01-11T05:58:27;139663.91;;;-15.44;97.93
28354;BME280;15603;50.878;8.036;2024-01-11T06:00:54;139661.53;;;-15.45;98.08
28354;BME280;15603;50.878;8.036;2024-01-11T06:03:22;139674.63;;;-15.39;97.87
28354;BME280;15603;50.878;8.036;2024-01-11T06:05:50;139654.38;;;-15.48;96.82
28354;BME280;15603;50.878;8.036;2024-01-11T06:08:18;139648.47;;;-15.50;97.24
28354;BME280;15603;50.878;8.036;2024-01-11T06:10:45;139643.69;;;-15.52;97.48
28354;BME280;15603;50.878;8.036;2024-01-11T06:13:12;139634.19;;;-15.56;97.35
28354;BME280;15603;50.878;8.036;2024-01-11T06:15:39;139644.88;;;-15.52;96.46
28354;BME280;15603;50.878;8.036;2024-01-11T06:18:06;139635.38;;;-15.56;97.96
28354;BME280;15603;50.878;8.036;2024-01-11T06:20:33;139631.78;;;-15.57;98.20
28354;BME280;15603;50.878;8.036;2024-01-11T06:23:01;139649.63;;;-15.50;97.78
28354;BME280;15603;50.878;8.036;2024-01-11T06:25:29;139643.69;;;-15.52;96.87
28354;BME280;15603;50.878;8.036;2024-01-11T06:27:56;139623.47;;;-15.61;97.47
28354;BME280;15603;50.878;8.036;2024-01-11T06:30:23;139627.03;;;-15.59;97.62
28354;BME280;15603;50.878;8.036;2024-01-11T06:32:50;139610.38;;;-15.67;97.50
28354;BME280;15603;50.878;8.036;2024-01-11T06:35:18;139613.94;;;-15.65;97.55
28354;BME280;15603;50.878;8.036;2024-01-11T06:37:45;139634.19;;;-15.56;97.40
28354;BME280;15603;50.878;8.036;2024-01-11T06:40:12;139623.47;;;-15.61;97.51
28354;BME280;15603;50.878;8.036;2024-01-11T06:42:39;139615.13;;;-15.65;97.98
28354;BME280;15603;50.878;8.036;2024-01-11T06:45:07;139605.63;;;-15.69;97.46
28354;BME280;15603;50.878;8.036;2024-01-11T06:47:35;139617.53;;;-15.64;97.96
28354;BME280;15603;50.878;8.036;2024-01-11T06:50:03;139617.53;;;-15.64;97.26
28354;BME280;15603;50.878;8.036;2024-01-11T06:52:30;139584.25;;;-15.78;96.92
28354;BME280;15603;50.878;8.036;2024-01-11T06:54:57;139564.06;;;-15.87;97.36
28354;BME280;15603;50.878;8.036;2024-01-11T06:57:24;139579.50;;;-15.80;97.38
28354;BME280;15603;50.878;8.036;2024-01-11T06:59:53;139567.63;;;-15.85;97.16
28354;BME280;15603;50.878;8.036;2024-01-11T07:02:20;139565.22;;;-15.86;97.16
28354;BME280;15603;50.878;8.036;2024-01-11T07:04:47;139567.63;;;-15.85;98.21
28354;BME280;15603;50.878;8.036;2024-01-11T07:07:14;139589.03;;;-15.76;97.45
28354;BME280;15603;50.878;8.036;2024-01-11T07:09:41;139593.81;;;-15.74;97.40
28354;BME280;15603;50.878;8.036;2024-01-11T07:12:08;139577.13;;;-15.81;96.56
28354;BME280;15603;50.878;8.036;2024-01-11T07:14:35;139589.03;;;-15.76;97.15
28354;BME280;15603;50.878;8.036;2024-01-11T07:17:03;139579.50;;;-15.80;96.74
28354;BME280;15603;50.878;8.036;2024-01-11T07:19:31;139585.47;;;-15.77;97.09
28354;BME280;15603;50.878;8.036;2024-01-11T07:21:58;139598.50;;;-15.72;97.26
28354;BME280;15603;50.878;8.036;2024-01-11T07:24:27;139622.28;;;-15.62;96.69
28354;BME280;15603;50.878;8.036;2024-01-11T07:26:54;139616.34;;;-15.64;95.97
28354;BME280;15603;50.878;8.036;2024-01-11T07:29:21;139553.38;;;-15.91;96.29
28354;BME280;15603;50.878;8.036;2024-01-11T07:31:48;139598.50;;;-15.72;97.67
28354;BME280;15603;50.878;8.036;2024-01-11T07:34:15;139622.28;;;-15.62;97.48
28354;BME280;15603;50.878;8.036;2024-01-11T07:36:44;139612.78;;;-15.66;97.16
28354;BME280;15603;50.878;8.036;2024-01-11T07:39:11;139624.63;;;-15.61;95.83
28354;BME280;15603;50.878;8.036;2024-01-11T07:41:38;139608.00;;;-15.68;95.68
28354;BME280;15603;50.878;8.036;2024-01-11T07:44:07;139616.34;;;-15.64;96.76
28354;BME280;15603;50.878;8.036;2024-01-11T07:46:34;139608.00;;;-15.68;95.91
28354;BME280;15603;50.878;8.036;2024-01-11T07:49:12;139600.88;;;-15.71;96.03
28354;BME280;15603;50.878;8.036;2024-01-11T07:51:39;139603.25;;;-15.70;96.00
28354;BME280;15603;50.878;8.036;2024-01-11T07:54:07;139605.63;;;-15.69;95.63
28354;BME280;15603;50.878;8.036;2024-01-11T07:56:34;139623.47;;;-15.61;96.89
28354;BME280;15603;50.878;8.036;2024-01-11T07:59:02;139644.88;;;-15.52;96.27
28354;BME280;15603;50.878;8.036;2024-01-11T08:01:29;139643.69;;;-15.52;96.32
28354;BME280;15603;50.878;8.036;2024-01-11T08:03:56;139650.81;;;-15.49;95.94
28354;BME280;15603;50.878;8.036;2024-01-11T08:06:23;139672.22;;;-15.40;96.36
28354;BME280;15603;50.878;8.036;2024-01-11T08:08:51;139662.72;;;-15.44;95.59
28354;BME280;15603;50.878;8.036;2024-01-11T08:11:19;139665.13;;;-15.43;94.95
28354;BME280;15603;50.878;8.036;2024-01-11T08:13:47;139659.16;;;-15.46;96.18
28354;BME280;15603;50.878;8.036;2024-01-11T08:16:17;139705.56;;;-15.26;95.46
28354;BME280;15603;50.878;8.036;2024-01-11T08:18:45;139738.88;;;-15.11;95.60
28354;BME280;15603;50.878;8.036;2024-01-11T08:21:13;139760.31;;;-15.02;93.83
28354;BME280;15603;50.878;8.036;2024-01-11T08:23:41;139793.59;;;-14.88;93.53
28354;BME280;15603;50.878;8.036;2024-01-11T08:26:13;139841.25;;;-14.67;94.46
28354;BME280;15603;50.878;8.036;2024-01-11T08:28:42;139862.69;;;-14.58;92.25
28354;BME280;15603;50.878;8.036;2024-01-11T08:31:09;139762.66;;;-15.01;91.17
28354;BME280;15603;50.878;8.036;2024-01-11T08:33:36;139915.03;;;-14.35;91.63
28354;BME280;15603;50.878;8.036;2024-01-11T08:36:05;139938.84;;;-14.25;90.98
28354;BME280;15603;50.878;8.036;2024-01-11T08:38:34;139981.69;;;-14.07;89.45
28354;BME280;15603;50.878;8.036;2024-01-11T08:41:03;139979.34;;;-14.08;89.85
28354;BME280;15603;50.878;8.036;2024-01-11T08:43:30;140012.66;;;-13.93;89.63
28354;BME280;15603;50.878;8.036;2024-01-11T08:45:58;140040.13;;;-13.81;88.35
28354;BME280;15603;50.878;8.036;2024-01-11T08:48:25;140047.22;;;-13.78;88.54
28354;BME280;15603;50.878;8.036;2024-01-11T08:50:54;140060.34;;;-13.73;88.15
28354;BME280;15603;50.878;8.036;2024-01-11T08:53:21;140084.16;;;-13.63;88.37
28354;BME280;15603;50.878;8.036;2024-01-11T08:55:48;140124.69;;;-13.45;88.13
28354;BME280;15603;50.878;8.036;2024-01-11T08:58:16;140129.50;;;-13.43;87.27
28354;BME280;15603;50.878;8.036;2024-01-11T09:00:43;140143.78;;;-13.37;86.86
28354;BME280;15603;50.878;8.036;2024-01-11T09:03:11;140187.84;;;-13.18;85.66
28354;BME280;15603;50.878;8.036;2024-01-11T09:05:41;140191.38;;;-13.16;85.40
28354;BME280;15603;50.878;8.036;2024-01-11T09:08:09;140093.72;;;-13.58;85.47
28354;BME280;15603;50.878;8.036;2024-01-11T09:10:36;140234.34;;;-12.98;85.47
28354;BME280;15603;50.878;8.036;2024-01-11T09:13:03;140205.72;;;-13.10;85.18
28354;BME280;15603;50.878;8.036;2024-01-11T09:15:30;140273.69;;;-12.81;85.68
28354;BME280;15603;50.878;8.036;2024-01-11T09:17:58;140268.94;;;-12.83;86.56
28354;BME280;15603;50.878;8.036;2024-01-11T09:20:27;140298.72;;;-12.70;86.88
28354;BME280;15603;50.878;8.036;2024-01-11T09:22:54;140314.25;;;-12.63;86.16
28354;BME280;15603;50.878;8.036;2024-01-11T09:25:21;140351.22;;;-12.48;86.01
28354;BME280;15603;50.878;8.036;2024-01-11T09:27:48;140377.47;;;-12.36;85.62
28354;BME280;15603;50.878;8.036;2024-01-11T09:30:16;140401.31;;;-12.26;84.81
28354;BME280;15603;50.878;8.036;2024-01-11T09:32:44;140431.16;;;-12.13;85.12
28354;BME280;15603;50.878;8.036;2024-01-11T09:35:11;140476.50;;;-11.94;84.99
28354;BME280;15603;50.878;8.036;2024-01-11T09:37:42;140490.78;;;-11.88;86.07
28354;BME280;15603;50.878;8.036;2024-01-11T09:40:10;140546.91;;;-11.63;86.20
28354;BME280;15603;50.878;8.036;2024-01-11T09:42:39;140576.75;;;-11.51;84.79
28354;BME280;15603;50.878;8.036;2024-01-11T09:45:12;140594.66;;;-11.43;84.43
28354;BME280;15603;50.878;8.036;2024-01-11T09:47:40;140606.59;;;-11.38;84.82
28354;BME280;15603;50.878;8.036;2024-01-11T09:50:08;140577.94;;;-11.50;83.93
28354;BME280;15603;50.878;8.036;2024-01-11T09:52:39;140697.34;;;-10.99;82.56
28354;BME280;15603;50.878;8.036;2024-01-11T09:55:06;140702.16;;;-10.97;83.10
28354;BME280;15603;50.878;8.036;2024-01-11T09:57:36;140760.69;;;-10.72;81.93
28354;BME280;15603;50.878;8.036;2024-01-11T10:00:04;140678.25;;;-11.07;81.57
28354;BME280;15603;50.878;8.036;2024-01-11T10:02:34;140769.03;;;-10.68;81.39
28354;BME280;15603;50.878;8.036;2024-01-11T10:05:02;140790.53;;;-10.59;81.38
28354;BME280;15603;50.878;8.036;2024-01-11T10:07:30;140729.63;;;-10.85;81.32
28354;BME280;15603;50.878;8.036;2024-01-11T10:09:58;140852.69;;;-10.32;81.02
28354;BME280;15603;50.878;8.036;2024-01-11T10:12:27;140905.25;;;-10.10;80.74
28354;BME280;15603;50.878;8.036;2024-01-11T10:14:54;140931.56;;;-9.98;80.13
28354;BME280;15603;50.878;8.036;2024-01-11T10:17:22;140948.28;;;-9.91;77.76
28354;BME280;15603;50.878;8.036;2024-01-11T10:19:53;140948.28;;;-9.91;77.51
28354;BME280;15603;50.878;8.036;2024-01-11T10:22:21;140985.38;;;-9.75;76.99
28354;BME280;15603;50.878;8.036;2024-01-11T10:25:07;141032.00;;;-9.55;76.90
28354;BME280;15603;50.878;8.036;2024-01-11T10:27:35;141097.81;;;-9.27;76.04
28354;BME280;15603;50.878;8.036;2024-01-11T10:30:02;141128.94;;;-9.14;74.80
28354;BME280;15603;50.878;8.036;2024-01-11T10:32:30;141084.66;;;-9.33;74.31
28354;BME280;15603;50.878;8.036;2024-01-11T10:34:57;141103.78;;;-9.24;74.89
28354;BME280;15603;50.878;8.036;2024-01-11T10:37:24;141125.31;;;-9.15;74.71
28354;BME280;15603;50.878;8.036;2024-01-11T10:39:52;141152.84;;;-9.03;75.30
28354;BME280;15603;50.878;8.036;2024-01-11T10:42:24;141206.69;;;-8.80;74.38
28354;BME280;15603;50.878;8.036;2024-01-11T10:44:54;141221.06;;;-8.74;75.11
28354;BME280;15603;50.878;8.036;2024-01-11T10:47:24;141254.59;;;-8.60;74.62
28354;BME280;15603;50.878;8.036;2024-01-11T10:49:54;141316.81;;;-8.33;72.91
28354;BME280;15603;50.878;8.036;2024-01-11T10:52:28;141327.56;;;-8.29;72.75
28354;BME280;15603;50.878;8.036;2024-01-11T10:55:00;141234.22;;;-8.69;72.08
28354;BME280;15603;50.878;8.036;2024-01-11T10:57:29;141361.06;;;-8.14;72.59
28354;BME280;15603;50.878;8.036;2024-01-11T11:00:00;141392.22;;;-8.01;71.49
28354;BME280;15603;50.878;8.036;2024-01-11T11:02:32;141386.25;;;-8.03;71.11
28354;BME280;15603;50.878;8.036;2024-01-11T11:05:02;141431.75;;;-7.84;71.69
28354;BME280;15603;50.878;8.036;2024-01-11T11:07:34;141453.34;;;-7.75;70.88
28354;BME280;15603;50.878;8.036;2024-01-11T11:10:02;141383.84;;;-8.04;70.90
28354;BME280;15603;50.878;8.036;2024-01-11T11:12:32;141504.84;;;-7.53;70.60
28354;BME280;15603;50.878;8.036;2024-01-11T11:15:02;141449.72;;;-7.76;69.54
28354;BME280;15603;50.878;8.036;2024-01-11T11:17:29;141531.19;;;-7.41;69.37
28354;BME280;15603;50.878;8.036;2024-01-11T11:19:57;141564.78;;;-7.27;68.93
28354;BME280;15603;50.878;8.036;2024-01-11T11:22:27;141565.97;;;-7.26;67.98
28354;BME280;15603;50.878;8.036;2024-01-11T11:27:38;141485.69;;;-7.61;68.27
28354;BME280;15603;50.878;8.036;2024-01-11T11:30:06;141536.00;;;-7.39;68.05
28354;BME280;15603;50.878;8.036;2024-01-11T11:32:35;141471.31;;;-7.67;66.74
28354;BME280;15603;50.878;8.036;2024-01-11T11:35:07;141570.75;;;-7.24;66.77
28354;BME280;15603;50.878;8.036;2024-01-11T11:37:39;141579.16;;;-7.21;66.24
28354;BME280;15603;50.878;8.036;2024-01-11T11:40:08;141633.09;;;-6.98;66.95
28354;BME280;15603;50.878;8.036;2024-01-11T11:42:36;141654.69;;;-6.88;67.46
28354;BME280;15603;50.878;8.036;2024-01-11T11:45:04;141666.66;;;-6.83;66.65
28354;BME280;15603;50.878;8.036;2024-01-11T11:47:36;141683.44;;;-6.76;65.93
28354;BME280;15603;50.878;8.036;2024-01-11T11:50:06;141705.03;;;-6.67;65.21
28354;BME280;15603;50.878;8.036;2024-01-11T11:52:38;141635.47;;;-6.97;65.17
28354;BME280;15603;50.878;8.036;2024-01-11T11:55:07;141731.41;;;-6.56;65.06
28354;BME280;15603;50.878;8.036;2024-01-11T11:57:35;141741.00;;;-6.52;62.78
28354;BME280;15603;50.878;8.036;2024-01-11T12:00:03;141757.81;;;-6.44;63.08
28354;BME280;15603;50.878;8.036;2024-01-11T12:02:38;141760.19;;;-6.43;63.19
28354;BME280;15603;50.878;8.036;2024-01-11T12:05:06;141781.78;;;-6.34;62.98
28354;BME280;15603;50.878;8.036;2024-01-11T12:07:34;141798.59;;;-6.27;62.93
28354;BME280;15603;50.878;8.036;2024-01-11T12:10:04;141810.56;;;-6.22;61.48
28354;BME280;15603;50.878;8.036;2024-01-11T12:12:33;141775.81;;;-6.37;62.02
28354;BME280;15603;50.878;8.036;2024-01-11T12:15:03;141854.94;;;-6.03;61.44
28354;BME280;15603;50.878;8.036;2024-01-11T12:17:30;141858.56;;;-6.01;61.47
28354;BME280;15603;50.878;8.036;2024-01-11T12:19:57;141864.56;;;-5.99;60.50
28354;BME280;15603;50.878;8.036;2024-01-11T12:22:25;141880.13;;;-5.92;61.02
28354;BME280;15603;50.878;8.036;2024-01-11T12:24:52;141882.50;;;-5.91;61.57
28354;BME280;15603;50.878;8.036;2024-01-11T12:27:20;141899.31;;;-5.84;61.86
28354;BME280;15603;50.878;8.036;2024-01-11T12:29:47;141929.31;;;-5.71;60.89
28354;BME280;15603;50.878;8.036;2024-01-11T12:32:25;141968.94;;;-5.54;61.04
28354;BME280;15603;50.878;8.036;2024-01-11T12:34:52;141971.31;;;-5.53;61.13
28354;BME280;15603;50.878;8.036;2024-01-11T12:37:20;142004.97;;;-5.39;61.09
28354;BME280;15603;50.878;8.036;2024-01-11T12:39:47;142009.75;;;-5.37;59.72
28354;BME280;15603;50.878;8.036;2024-01-11T12:42:15;142020.53;;;-5.32;60.41
28354;BME280;15603;50.878;8.036;2024-01-11T12:44:42;142019.34;;;-5.33;58.97
28354;BME280;15603;50.878;8.036;2024-01-11T12:47:09;142045.78;;;-5.21;59.42
28354;BME280;15603;50.878;8.036;2024-01-11T12:49:37;142048.16;;;-5.20;60.07
28354;BME280;15603;50.878;8.036;2024-01-11T12:52:04;142061.38;;;-5.15;58.79